createdAt,value
2017-11-09T04:31:14.032Z,6.40
2017-11-09T04:33:41.618Z,6.40
2017-11-09T04:36:09.223Z,6.40
2017-11-09T04:38:37.607Z,6.30
2017-11-09T04:41:05.206Z,6.30
2017-11-09T04:43:32.841Z,6.30
2017-11-09T04:46:00.427Z,6.30
2017-11-09T04:48:28.035Z,6.30
2017-11-09T04:50:56.411Z,6.40
2017-11-09T04:53:24.787Z,6.40
2017-11-09T04:55:53.138Z,6.40
2017-11-09T04:58:20.827Z,6.40
2017-11-09T05:00:49.178Z,6.40
2017-11-09T05:03:16.771Z,6.40
2017-11-09T05:05:44.407Z,6.40
2017-11-09T05:08:12.802Z,6.30
2017-11-09T05:10:41.187Z,6.20
2017-11-09T05:13:08.798Z,6.20
2017-11-09T05:15:36.378Z,6.20
2017-11-09T05:18:04.057Z,6.10
2017-11-09T05:20:32.430Z,6.10
2017-11-09T05:23:00.807Z,6.10
2017-11-09T05:25:29.212Z,6.00
2017-11-09T05:27:56.846Z,6.10
2017-11-09T05:30:25.196Z,6.10
2017-11-09T05:32:53.618Z,6.10
2017-11-09T05:35:21.198Z,6.10
2017-11-09T05:37:48.820Z,6.10
2017-11-09T05:40:17.241Z,6.10
2017-11-09T05:42:44.827Z,6.10
2017-11-09T05:45:12.520Z,6.10
2017-11-09T05:47:40.896Z,6.10
2017-11-09T05:50:09.262Z,6.10
2017-11-09T05:52:37.614Z,6.30
2017-11-09T05:55:05.308Z,6.30
2017-11-09T05:57:33.686Z,6.30
2017-11-09T06:00:02.039Z,6.20
2017-11-09T06:02:29.651Z,6.20
2017-11-09T06:04:57.234Z,6.20
2017-11-09T06:07:24.843Z,6.30
2017-11-09T06:09:53.219Z,6.50
2017-11-09T06:12:21.572Z,6.40
2017-11-09T06:14:49.207Z,6.40
2017-11-09T06:17:16.794Z,6.40
2017-11-09T06:19:44.481Z,6.40
2017-11-09T06:22:12.109Z,6.30
2017-11-09T06:24:40.515Z,6.30
2017-11-09T06:27:08.891Z,6.20
2017-11-09T06:29:37.267Z,6.20
2017-11-09T06:32:05.619Z,6.10
2017-11-09T06:34:33.307Z,6.10
2017-11-09T06:37:01.691Z,6.10
2017-11-09T06:39:29.331Z,6.00
2017-11-09T06:41:57.723Z,6.00
2017-11-09T06:44:25.379Z,6.00
2017-11-09T06:46:53.751Z,6.00
2017-11-09T06:49:22.111Z,6.00
2017-11-09T06:51:49.794Z,6.00
2017-11-09T06:54:18.373Z,6.00
2017-11-09T06:56:46.785Z,6.00
2017-11-09T06:59:14.372Z,6.00
2017-11-09T07:01:41.979Z,6.00
2017-11-09T07:04:09.571Z,6.10
2017-11-09T07:06:37.183Z,6.10
2017-11-09T07:09:05.537Z,6.00
2017-11-09T07:11:33.174Z,6.10
2017-11-09T07:14:00.760Z,6.00
2017-11-09T07:16:28.347Z,6.00
2017-11-09T07:18:56.827Z,6.10
2017-11-09T07:21:24.496Z,6.10
2017-11-09T07:23:52.100Z,6.00
2017-11-09T07:26:19.747Z,6.00
2017-11-09T07:28:47.335Z,5.90
2017-11-09T07:31:14.925Z,6.00
2017-11-09T07:33:43.318Z,6.10
2017-11-09T07:36:10.907Z,6.10
2017-11-09T07:38:38.499Z,6.10
2017-11-09T07:41:06.183Z,6.10
2017-11-09T07:43:34.535Z,6.10
2017-11-09T07:46:02.216Z,6.10
2017-11-09T07:48:30.606Z,6.00
2017-11-09T07:50:58.206Z,6.00
2017-11-09T07:53:25.818Z,5.90
2017-11-09T07:55:54.299Z,5.90
2017-11-09T07:58:22.650Z,5.90
2017-11-09T08:00:50.240Z,5.90
2017-11-09T08:03:17.852Z,5.90
2017-11-09T08:05:45.551Z,6.00
2017-11-09T08:08:13.895Z,6.10
2017-11-09T08:10:41.588Z,6.00
2017-11-09T08:13:09.185Z,6.10
2017-11-09T08:15:36.772Z,6.10
2017-11-09T08:18:04.412Z,6.10
2017-11-09T08:20:31.998Z,6.10
2017-11-09T08:22:59.686Z,6.00
2017-11-09T08:25:29.775Z,6.00
2017-11-09T08:28:14.301Z,6.00
2017-11-09T08:30:45.360Z,6.00
2017-11-09T08:33:13.673Z,6.00
2017-11-09T08:35:42.028Z,5.90
2017-11-09T08:38:09.625Z,5.90
2017-11-09T08:40:37.268Z,5.90
2017-11-09T08:43:05.648Z,5.90
2017-11-09T08:45:34.035Z,5.90
2017-11-09T08:48:01.693Z,5.90
2017-11-09T08:50:29.347Z,5.90
2017-11-09T08:52:57.735Z,5.90
2017-11-09T08:55:25.327Z,5.90
2017-11-09T08:57:52.928Z,5.90
2017-11-09T09:00:20.576Z,5.90
2017-11-09T09:02:48.258Z,5.90
2017-11-09T09:05:16.607Z,6.00
2017-11-09T09:07:44.305Z,6.00
2017-11-09T09:10:12.660Z,6.00
2017-11-09T09:12:41.019Z,6.00
2017-11-09T09:15:08.656Z,6.00
2017-11-09T09:17:36.247Z,6.00
2017-11-09T09:20:03.843Z,6.00
2017-11-09T09:25:26.533Z,6.00
2017-11-09T09:27:56.873Z,6.00
2017-11-09T09:30:24.483Z,6.00
2017-11-09T09:33:12.063Z,6.10
2017-11-09T09:35:46.225Z,6.10
2017-11-09T09:38:31.154Z,6.10
2017-11-09T09:40:58.755Z,6.20
2017-11-09T09:43:26.383Z,6.20
2017-11-09T09:45:53.972Z,6.20
2017-11-09T09:48:21.559Z,6.20
2017-11-09T09:50:49.195Z,6.20
2017-11-09T09:53:16.839Z,6.30
2017-11-09T09:55:45.214Z,6.40
2017-11-09T09:58:13.578Z,6.40
2017-11-09T10:00:41.942Z,6.30
2017-11-09T10:03:09.579Z,6.30
2017-11-09T10:05:37.168Z,6.40
2017-11-09T10:08:04.750Z,6.50
2017-11-09T10:10:33.139Z,6.60
2017-11-09T10:13:00.783Z,6.60
2017-11-09T10:15:29.167Z,6.70
2017-11-09T10:17:57.572Z,6.70
2017-11-09T10:20:25.191Z,6.70
2017-11-09T10:22:53.543Z,6.70
2017-11-09T10:25:21.239Z,6.70
2017-11-09T10:27:49.610Z,6.70
2017-11-09T10:30:17.992Z,6.80
2017-11-09T10:32:46.481Z,6.80
2017-11-09T10:35:14.080Z,6.70
2017-11-09T10:37:41.672Z,6.80
2017-11-09T10:40:09.295Z,6.70
2017-11-09T10:42:36.893Z,6.80
2017-11-09T10:45:04.475Z,7.00
2017-11-09T10:47:32.098Z,7.10
2017-11-09T10:49:59.678Z,7.10
2017-11-09T10:52:28.059Z,7.30
2017-11-09T10:54:56.427Z,7.30
2017-11-09T10:57:24.816Z,7.30
2017-11-09T10:59:53.345Z,7.40
2017-11-09T11:02:20.927Z,7.40
2017-11-09T11:04:48.502Z,7.60
2017-11-09T11:07:16.167Z,7.60
2017-11-09T11:09:44.519Z,7.60
2017-11-09T11:12:12.107Z,7.60
2017-11-09T11:14:40.582Z,7.40
2017-11-09T11:17:08.964Z,7.30
2017-11-09T11:19:37.314Z,7.30
2017-11-09T11:22:06.942Z,7.30
2017-11-09T11:24:35.291Z,7.40
2017-11-09T11:27:02.887Z,7.40
2017-11-09T11:29:31.291Z,7.70
2017-11-09T11:31:58.876Z,7.60
2017-11-09T11:34:26.454Z,7.70
2017-11-09T11:36:54.089Z,7.30
2017-11-09T11:39:21.672Z,7.20
2017-11-09T11:41:49.262Z,7.20
2017-11-09T11:44:16.906Z,7.10
2017-11-09T11:46:44.510Z,7.20
2017-11-09T11:49:12.100Z,7.10
2017-11-09T11:51:39.723Z,7.10
2017-11-09T11:54:07.307Z,7.30
2017-11-09T11:56:34.882Z,7.30
2017-11-09T11:59:02.487Z,7.40
2017-11-09T12:01:30.075Z,7.30
2017-11-09T12:03:57.675Z,7.30
2017-11-09T12:06:25.259Z,7.60
2017-11-09T12:08:52.880Z,7.70
2017-11-09T12:11:20.459Z,7.70
2017-11-09T12:13:48.811Z,7.60
2017-11-09T12:16:16.438Z,7.60
2017-11-09T12:18:44.018Z,7.50
2017-11-09T12:21:11.598Z,7.60
2017-11-09T12:23:39.236Z,7.60
2017-11-09T12:26:06.827Z,7.60
2017-11-09T12:28:35.177Z,7.70
2017-11-09T12:31:02.818Z,7.70
2017-11-09T12:33:30.407Z,7.80
2017-11-09T12:35:58.010Z,7.70
2017-11-09T12:38:25.640Z,7.80
2017-11-09T12:40:53.227Z,7.70
2017-11-09T12:43:20.815Z,7.70
2017-11-09T12:45:48.446Z,7.70
2017-11-09T12:48:16.024Z,7.60
2017-11-09T12:50:43.607Z,7.70
2017-11-09T12:53:11.983Z,7.70
2017-11-09T12:55:40.338Z,7.70
2017-11-09T12:58:07.918Z,7.70
2017-11-09T13:00:35.538Z,7.70
2017-11-09T13:03:03.118Z,7.70
2017-11-09T13:05:30.748Z,7.70
2017-11-09T13:07:58.352Z,7.70
2017-11-09T13:10:25.939Z,7.70
2017-11-09T13:12:53.547Z,7.70
2017-11-09T13:15:21.136Z,7.80
2017-11-09T13:17:48.740Z,7.80
2017-11-09T13:20:16.406Z,7.80
2017-11-09T13:22:43.999Z,7.90
2017-11-09T13:25:11.619Z,7.80
2017-11-09T13:27:39.970Z,7.80
2017-11-09T13:30:07.559Z,7.80
2017-11-09T13:32:35.186Z,7.70
2017-11-09T13:35:02.763Z,7.70
2017-11-09T13:37:31.116Z,7.60
2017-11-09T13:39:58.719Z,7.60
2017-11-09T13:42:26.303Z,7.50
2017-11-09T13:44:53.904Z,7.50
2017-11-09T13:47:21.487Z,7.50
2017-11-09T13:49:49.891Z,7.50
2017-11-09T13:52:17.480Z,7.40
2017-11-09T13:54:45.058Z,7.40
2017-11-09T13:57:12.667Z,7.40
2017-11-09T13:59:40.251Z,7.40
2017-11-09T14:02:07.840Z,7.40
2017-11-09T14:04:36.233Z,7.30
2017-11-09T14:07:04.584Z,7.30
2017-11-09T14:09:32.195Z,7.30
2017-11-09T14:11:59.779Z,7.30
2017-11-09T14:14:27.360Z,7.30
2017-11-09T14:16:54.967Z,7.30
2017-11-09T14:19:22.627Z,7.30
2017-11-09T14:21:50.212Z,7.30
2017-11-09T14:24:17.800Z,7.30
2017-11-09T14:26:45.408Z,7.30
2017-11-09T14:29:13.020Z,7.20
2017-11-09T14:31:40.603Z,7.20
2017-11-09T14:34:08.947Z,7.20
2017-11-09T14:36:36.579Z,7.20
2017-11-09T14:39:04.167Z,7.20
2017-11-09T14:41:31.746Z,7.10
2017-11-09T14:44:00.120Z,7.10
2017-11-09T14:46:28.464Z,7.10
2017-11-09T14:48:56.839Z,7.20
2017-11-09T14:51:24.423Z,7.20
2017-11-09T14:53:52.778Z,7.10
2017-11-09T14:56:20.402Z,7.10
2017-11-09T14:58:47.983Z,7.10
2017-11-09T15:01:15.571Z,7.10
2017-11-09T15:03:43.175Z,7.10
2017-11-09T15:06:10.805Z,7.10
2017-11-09T15:08:42.987Z,7.10
2017-11-09T15:11:10.596Z,7.10
2017-11-09T15:13:38.183Z,7.20
2017-11-09T15:16:05.772Z,7.20
2017-11-09T15:18:33.402Z,7.20
2017-11-09T15:21:01.118Z,7.20
2017-11-09T15:23:28.698Z,7.20
2017-11-09T15:25:56.343Z,7.20
2017-11-09T15:28:23.959Z,7.10
2017-11-09T15:30:51.550Z,7.10
2017-11-09T15:33:19.176Z,7.10
2017-11-09T15:35:53.556Z,7.20
2017-11-09T15:38:21.247Z,7.20
2017-11-09T15:40:50.007Z,7.10
2017-11-09T15:43:17.699Z,7.10
2017-11-09T15:45:46.074Z,7.10
2017-11-09T15:48:14.555Z,7.00
2017-11-09T15:50:43.196Z,7.00
2017-11-09T15:53:10.783Z,7.00
2017-11-09T15:55:38.507Z,7.10
2017-11-09T15:58:06.102Z,7.10
2017-11-09T16:00:33.789Z,7.10
2017-11-09T16:03:01.389Z,7.10
2017-11-09T16:05:28.975Z,7.10
2017-11-09T16:07:56.658Z,7.10
2017-11-09T16:10:25.034Z,7.10
2017-11-09T16:12:53.414Z,7.10
2017-11-09T16:15:21.788Z,7.00
2017-11-09T16:17:50.138Z,7.00
2017-11-09T16:20:17.823Z,7.00
2017-11-09T16:22:46.176Z,7.00
2017-11-09T16:25:13.862Z,7.00
2017-11-09T16:27:42.234Z,7.00
2017-11-09T16:30:10.588Z,7.00
2017-11-09T16:32:38.289Z,7.00
2017-11-09T16:35:05.932Z,7.00
2017-11-09T16:37:34.288Z,7.00
2017-11-09T16:40:01.873Z,7.00
2017-11-09T16:42:36.079Z,7.00
2017-11-09T16:45:03.751Z,6.90
2017-11-09T16:47:32.157Z,6.90
2017-11-09T16:49:59.788Z,6.90
2017-11-09T16:52:28.217Z,6.90
2017-11-09T16:54:55.931Z,6.90
2017-11-09T16:57:24.410Z,6.80
2017-11-09T16:59:52.790Z,6.90
2017-11-09T17:02:21.217Z,6.80
2017-11-09T17:04:48.840Z,6.80
2017-11-09T17:07:32.025Z,6.80
2017-11-09T17:09:59.651Z,6.70
2017-11-09T17:12:27.239Z,6.70
2017-11-09T17:15:00.919Z,6.70
2017-11-09T17:17:28.506Z,6.60
2017-11-09T17:19:56.188Z,6.60
2017-11-09T17:22:24.535Z,6.60
2017-11-09T17:24:53.630Z,6.70
2017-11-09T17:27:21.230Z,6.70
2017-11-09T17:29:48.979Z,6.70
2017-11-09T17:32:17.844Z,6.60
2017-11-09T17:34:45.583Z,6.60
2017-11-09T17:37:13.380Z,6.70
2017-11-09T17:39:41.964Z,6.70
2017-11-09T17:42:14.471Z,6.70
2017-11-09T17:44:42.151Z,6.70
2017-11-09T17:47:09.738Z,6.70
2017-11-09T17:49:37.376Z,6.70
2017-11-09T17:52:05.277Z,6.70
2017-11-09T17:54:33.657Z,6.80
2017-11-09T17:57:01.286Z,6.80
2017-11-09T17:59:29.865Z,6.80
2017-11-09T18:01:57.586Z,6.80
2017-11-09T18:04:26.000Z,6.80
2017-11-09T18:06:53.588Z,6.80
2017-11-09T18:09:21.185Z,6.80
2017-11-09T18:11:48.822Z,6.80
2017-11-09T18:14:16.407Z,6.80
2017-11-09T18:16:43.990Z,6.90
2017-11-09T18:19:11.603Z,7.00
2017-11-09T18:21:39.986Z,7.20
2017-11-09T18:24:08.359Z,7.20
2017-11-09T18:26:36.742Z,7.10
2017-11-09T18:29:05.115Z,7.10
2017-11-09T18:31:34.339Z,7.20
2017-11-09T18:34:01.927Z,7.20
2017-11-09T18:36:29.511Z,7.40
2017-11-09T18:38:57.146Z,7.30
2017-11-09T18:41:24.763Z,7.30
2017-11-09T18:43:52.420Z,7.30
2017-11-09T18:46:20.790Z,7.30
2017-11-09T18:48:49.144Z,7.40
2017-11-09T18:51:16.771Z,7.40
2017-11-09T18:53:44.391Z,7.30
2017-11-09T18:56:12.768Z,7.10
2017-11-09T18:58:42.923Z,7.10
2017-11-09T19:01:10.515Z,7.00
2017-11-09T19:03:39.739Z,7.10
2017-11-09T19:06:08.125Z,7.00
2017-11-09T19:08:35.719Z,7.00
2017-11-09T19:11:03.566Z,7.00
2017-11-09T19:13:32.128Z,6.90
2017-11-09T19:16:00.491Z,6.90
2017-11-09T19:18:28.863Z,6.90
2017-11-09T19:20:56.452Z,6.90
2017-11-09T19:23:24.094Z,6.90
2017-11-09T19:25:52.447Z,7.10
2017-11-09T19:28:20.813Z,7.20
2017-11-09T19:30:48.507Z,7.20
2017-11-09T19:33:16.859Z,7.30
2017-11-09T19:35:44.496Z,7.30
2017-11-09T19:38:12.133Z,7.30
2017-11-09T19:40:39.722Z,7.30
2017-11-09T19:43:07.328Z,7.20
2017-11-09T19:45:35.717Z,7.00
2017-11-09T19:48:03.363Z,7.00
2017-11-09T19:50:31.847Z,6.90
2017-11-09T19:53:00.198Z,6.90
2017-11-09T19:55:27.787Z,6.90
2017-11-09T19:57:56.255Z,6.90
2017-11-09T20:00:24.631Z,7.00
2017-11-09T20:02:52.983Z,7.00
2017-11-09T20:05:20.599Z,7.00
2017-11-09T20:07:48.268Z,7.00
2017-11-09T20:10:15.891Z,7.00
2017-11-09T20:12:44.372Z,7.20
2017-11-09T20:15:12.719Z,7.20
2017-11-09T20:17:40.303Z,7.10
2017-11-09T20:20:08.684Z,7.00
2017-11-09T20:22:37.067Z,7.10
2017-11-09T20:25:05.444Z,7.10
2017-11-09T20:27:33.795Z,7.00
2017-11-09T20:30:01.383Z,7.00
2017-11-09T20:32:28.998Z,7.00
2017-11-09T20:34:56.598Z,6.90
2017-11-09T20:37:24.224Z,6.90
2017-11-09T20:39:51.812Z,6.90
2017-11-09T20:42:19.416Z,6.90
2017-11-09T20:44:47.025Z,7.00
2017-11-09T20:47:15.383Z,7.10
2017-11-09T20:49:43.003Z,7.00
2017-11-09T20:52:13.188Z,7.10
2017-11-09T20:54:41.616Z,7.00
2017-11-09T20:57:09.270Z,7.00
2017-11-09T20:59:36.850Z,7.00
2017-11-09T21:02:04.490Z,7.00
2017-11-09T21:04:32.121Z,7.00
2017-11-09T21:06:59.711Z,7.10
2017-11-09T21:09:27.295Z,7.10
2017-11-09T21:11:54.903Z,7.10
2017-11-09T21:14:22.483Z,7.10
2017-11-09T21:16:50.092Z,7.10
2017-11-09T21:19:18.507Z,7.30
2017-11-09T21:21:46.091Z,7.30
2017-11-09T21:24:13.689Z,7.20
2017-11-09T21:26:42.120Z,7.10
2017-11-09T21:29:09.862Z,7.10
2017-11-09T21:31:37.449Z,7.20
2017-11-09T21:34:05.038Z,7.10
2017-11-09T21:36:32.667Z,7.10
2017-11-09T21:39:00.251Z,7.10
2017-11-09T21:41:27.831Z,7.10
2017-11-09T21:43:56.223Z,7.10
2017-11-09T21:46:23.803Z,7.10
2017-11-09T21:48:51.391Z,7.20
2017-11-09T21:51:18.990Z,7.20
2017-11-09T21:53:47.332Z,7.30
2017-11-09T21:56:14.959Z,7.30
2017-11-09T21:58:42.540Z,7.30
2017-11-09T22:01:10.123Z,7.40
2017-11-09T22:03:37.731Z,7.20
2017-11-09T22:06:05.316Z,7.20
2017-11-09T22:08:32.899Z,7.20
2017-11-09T22:11:00.512Z,7.30
2017-11-09T22:13:28.099Z,7.30
2017-11-09T22:15:55.751Z,7.20
2017-11-09T22:18:23.401Z,7.30
2017-11-09T22:20:51.746Z,7.20
2017-11-09T22:23:19.352Z,7.20
2017-11-09T22:25:46.935Z,7.30
2017-11-09T22:28:15.312Z,7.20
2017-11-09T22:30:43.666Z,7.10
2017-11-09T22:33:11.248Z,7.10
2017-11-09T22:35:39.623Z,7.00
2017-11-09T22:38:07.208Z,7.00
2017-11-09T22:40:34.792Z,7.00
2017-11-09T22:43:02.398Z,7.00
2017-11-09T22:45:30.750Z,7.00
2017-11-09T22:47:58.331Z,7.00
2017-11-09T22:50:26.709Z,7.00
2017-11-09T22:52:55.071Z,7.00
2017-11-09T22:55:22.655Z,7.00
2017-11-09T22:57:51.056Z,7.00
2017-11-09T23:00:18.647Z,7.00
2017-11-09T23:02:46.237Z,7.00
2017-11-09T23:05:13.908Z,7.00
2017-11-09T23:07:42.295Z,7.00
2017-11-09T23:10:10.681Z,7.00
2017-11-09T23:12:38.332Z,7.00
2017-11-09T23:15:06.748Z,7.00
2017-11-09T23:17:34.368Z,6.90
2017-11-09T23:20:02.824Z,7.10
2017-11-09T23:22:30.444Z,7.00
2017-11-09T23:24:58.065Z,7.10
2017-11-09T23:27:26.507Z,7.10
2017-11-09T23:29:54.132Z,7.10
